createdAt,value
2023-04-18T00:01:39.785Z,56.18
2023-04-18T00:04:08.874Z,56.28
2023-04-18T00:06:37.362Z,56.25
2023-04-18T00:09:05.469Z,56.07
2023-04-18T00:11:34.722Z,56.52
2023-04-18T00:14:03.511Z,55.28
2023-04-18T00:16:33.353Z,54.96
2023-04-18T00:19:02.513Z,54.86
2023-04-18T00:21:32.098Z,54.86
2023-04-18T00:24:00.200Z,54.43
2023-04-18T00:26:28.373Z,53.45
2023-04-18T00:28:58.400Z,54.43
2023-04-18T00:31:26.557Z,54.78
2023-04-18T00:33:54.837Z,54.90
2023-04-18T00:36:24.858Z,55.40
2023-04-18T00:38:53.028Z,55.37
2023-04-18T00:41:21.925Z,55.60
2023-04-18T00:43:49.995Z,56.12
2023-04-18T00:46:18.175Z,55.97
2023-04-18T00:48:46.957Z,55.77
2023-04-18T00:51:15.134Z,55.99
2023-04-18T00:53:43.403Z,55.83
2023-04-18T00:56:11.485Z,56.21
2023-04-18T00:58:41.305Z,56.64
2023-04-18T01:01:09.755Z,56.48
2023-04-18T01:03:39.900Z,56.91
2023-04-18T01:06:08.162Z,54.89
2023-04-18T01:08:36.242Z,54.46
2023-04-18T01:11:04.304Z,54.53
2023-04-18T01:13:32.275Z,55.12
2023-04-18T01:16:00.600Z,55.49
2023-04-18T01:18:31.698Z,56.78
2023-04-18T01:21:00.498Z,55.47
2023-04-18T01:23:28.562Z,55.73
2023-04-18T01:25:56.640Z,55.97
2023-04-18T01:28:27.844Z,56.35
2023-04-18T01:30:57.202Z,55.28
2023-04-18T01:33:25.666Z,54.94
2023-04-18T01:35:53.744Z,55.65
2023-04-18T01:38:22.934Z,55.63
2023-04-18T01:40:50.890Z,56.11
2023-04-18T01:43:18.869Z,55.85
2023-04-18T01:45:46.843Z,55.03
2023-04-18T01:48:14.805Z,55.73
2023-04-18T01:50:43.192Z,54.78
2023-04-18T01:53:11.972Z,54.54
2023-04-18T01:55:39.835Z,54.16
2023-04-18T01:58:08.134Z,54.68
2023-04-18T02:00:36.685Z,53.90
2023-04-18T02:03:06.922Z,53.79
2023-04-18T02:05:36.537Z,53.90
2023-04-18T02:08:04.818Z,54.51
2023-04-18T02:10:32.784Z,55.06
2023-04-18T02:13:00.857Z,55.57
2023-04-18T02:15:29.037Z,55.82
2023-04-18T02:18:00.299Z,55.47
2023-04-18T02:20:31.720Z,56.10
2023-04-18T02:23:02.538Z,54.62
2023-04-18T02:25:31.149Z,54.14
2023-04-18T02:27:59.129Z,53.42
2023-04-18T02:30:27.393Z,53.54
2023-04-18T02:32:57.280Z,52.72
2023-04-18T02:35:26.161Z,51.97
2023-04-18T02:37:54.190Z,49.91
2023-04-18T02:40:22.251Z,50.83
2023-04-18T02:42:50.510Z,51.19
2023-04-18T02:45:18.691Z,51.23
2023-04-18T02:47:54.568Z,51.69
2023-04-18T02:50:24.777Z,52.05
2023-04-18T02:52:53.658Z,51.79
2023-04-18T02:55:22.672Z,50.56
2023-04-18T02:57:50.728Z,52.21
2023-04-18T03:00:45.533Z,51.77
2023-04-18T03:03:36.841Z,51.00
2023-04-18T03:06:16.590Z,51.53
2023-04-18T03:08:44.651Z,52.05
2023-04-18T03:11:12.625Z,51.50
2023-04-18T03:13:41.002Z,51.17
2023-04-18T03:16:09.634Z,51.36
2023-04-18T03:18:38.076Z,51.58
2023-04-18T03:21:07.360Z,51.32
2023-04-18T03:23:35.953Z,52.06
2023-04-18T03:26:06.619Z,52.63
2023-04-18T03:28:35.582Z,51.93
2023-04-18T03:31:04.042Z,53.14
2023-04-18T03:33:33.474Z,53.57
2023-04-18T03:36:08.067Z,53.41
2023-04-18T03:38:36.153Z,51.87
2023-04-18T03:41:04.256Z,53.06
2023-04-18T03:43:34.863Z,52.13
2023-04-18T03:46:03.316Z,51.77
2023-04-18T03:48:35.923Z,50.75
2023-04-18T03:51:06.451Z,50.96
2023-04-18T03:53:36.469Z,51.81
2023-04-18T03:56:04.857Z,52.04
2023-04-18T03:59:02.139Z,52.74
2023-04-18T04:01:31.751Z,53.05
2023-04-18T04:04:01.756Z,52.50
2023-04-18T04:06:32.358Z,52.40
2023-04-18T04:09:01.875Z,51.42
2023-04-18T04:11:30.260Z,51.88
2023-04-18T04:13:58.531Z,52.09
2023-04-18T04:16:31.142Z,51.75
2023-04-18T04:18:59.381Z,50.63
2023-04-18T04:21:32.480Z,51.54
2023-04-18T04:24:01.616Z,53.24
2023-04-18T04:26:50.871Z,53.29
2023-04-18T04:29:21.773Z,52.40
2023-04-18T04:31:50.201Z,53.12
2023-04-18T04:34:25.963Z,53.87
2023-04-18T04:36:54.896Z,53.48
2023-04-18T04:39:23.927Z,52.97
2023-04-18T04:42:04.767Z,52.63
2023-04-18T04:44:41.742Z,53.10
2023-04-18T04:47:10.024Z,54.16
2023-04-18T04:49:38.800Z,53.19
2023-04-18T04:52:07.176Z,51.74
2023-04-18T04:54:35.586Z,49.95
2023-04-18T04:57:04.555Z,49.48
2023-04-18T04:59:32.634Z,49.03
2023-04-18T05:02:01.988Z,47.85
2023-04-18T05:04:30.483Z,48.07
2023-04-18T05:06:58.788Z,51.24
2023-04-18T05:09:27.064Z,50.69
2023-04-18T05:11:55.145Z,49.90
2023-04-18T05:14:23.204Z,50.87
2023-04-18T05:16:51.417Z,49.69
2023-04-18T05:19:19.755Z,49.88
2023-04-18T05:21:47.934Z,48.83
2023-04-18T05:24:16.132Z,48.53
2023-04-18T05:26:44.488Z,49.99
2023-04-18T05:29:12.552Z,52.43
2023-04-18T05:31:40.625Z,53.56
2023-04-18T05:37:02.889Z,66.57
2023-04-18T05:39:30.863Z,61.44
2023-04-18T05:41:58.948Z,58.86
2023-04-18T05:44:26.916Z,57.04
2023-04-18T05:46:55.089Z,55.61
2023-04-18T05:49:23.753Z,54.25
2023-04-18T05:51:53.112Z,53.60
2023-04-18T05:54:25.206Z,52.61
2023-04-18T05:56:54.011Z,51.82
2023-04-18T05:59:22.198Z,51.33
2023-04-18T06:01:50.235Z,50.73
2023-04-18T06:04:19.694Z,49.99
2023-04-18T06:06:48.074Z,49.27
2023-04-18T06:09:16.086Z,49.04
2023-04-18T06:11:44.035Z,48.39
2023-04-18T06:14:12.508Z,47.91
2023-04-18T06:16:40.945Z,47.48
2023-04-18T06:19:09.044Z,47.35
2023-04-18T06:21:36.955Z,47.03
2023-04-18T06:24:05.143Z,46.61
2023-04-18T06:26:33.132Z,46.28
2023-04-18T06:29:01.223Z,46.09
2023-04-18T06:31:29.370Z,45.61
2023-04-18T06:33:57.454Z,45.16
2023-04-18T06:36:27.001Z,44.92
2023-04-18T06:38:55.108Z,45.03
2023-04-18T06:41:25.929Z,44.59
2023-04-18T06:44:03.338Z,44.19
2023-04-18T06:46:33.178Z,43.76
2023-04-18T06:49:01.391Z,43.44
2023-04-18T06:51:29.437Z,43.22
2023-04-18T06:53:57.421Z,42.86
2023-04-18T06:56:26.204Z,42.78
2023-04-18T06:58:54.158Z,43.41
2023-04-18T07:01:22.228Z,42.83
2023-04-18T07:03:50.464Z,42.53
2023-04-18T07:06:19.071Z,42.42
2023-04-18T07:08:47.125Z,40.47
2023-04-18T07:11:15.965Z,37.94
2023-04-18T07:13:45.379Z,37.39
2023-04-18T07:16:13.408Z,37.96
2023-04-18T07:18:41.574Z,38.89
2023-04-18T07:21:09.541Z,39.34
2023-04-18T07:23:37.835Z,39.26
2023-04-18T07:26:06.202Z,38.72
2023-04-18T07:28:34.384Z,38.65
2023-04-18T07:31:05.997Z,38.90
2023-04-18T07:33:35.347Z,39.23
2023-04-18T07:36:03.504Z,39.26
2023-04-18T07:38:31.589Z,39.14
2023-04-18T07:41:00.682Z,39.60
2023-04-18T07:43:28.698Z,38.89
2023-04-18T07:45:56.836Z,38.67
2023-04-18T07:48:27.984Z,38.72
2023-04-18T07:50:55.961Z,38.77
2023-04-18T07:53:23.918Z,39.00
2023-04-18T07:55:51.900Z,38.88
2023-04-18T07:58:19.957Z,38.51
2023-04-18T08:00:47.927Z,37.17
2023-04-18T08:03:16.403Z,35.79
2023-04-18T08:05:44.789Z,38.00
2023-04-18T08:08:12.843Z,37.06
2023-04-18T08:10:41.231Z,35.50
2023-04-18T08:13:09.708Z,34.20
2023-04-18T08:15:37.651Z,32.88
2023-04-18T08:18:05.796Z,32.96
2023-04-18T08:20:36.030Z,33.37
2023-04-18T08:23:08.664Z,33.65
2023-04-18T08:25:37.642Z,33.78
2023-04-18T08:28:05.628Z,34.12
2023-04-18T08:30:34.110Z,33.95
2023-04-18T08:33:02.758Z,33.47
2023-04-18T08:35:31.122Z,33.80
2023-04-18T08:37:59.339Z,33.17
2023-04-18T08:40:27.532Z,33.85
2023-04-18T08:42:56.412Z,33.74
2023-04-18T08:45:43.164Z,34.45
2023-04-18T08:48:28.802Z,34.70
2023-04-18T08:50:58.466Z,34.67
2023-04-18T08:53:45.170Z,34.80
2023-04-18T08:56:14.844Z,35.01
2023-04-18T08:58:45.244Z,34.97
2023-04-18T09:01:56.826Z,35.13
2023-04-18T09:04:45.206Z,35.08
2023-04-18T09:07:15.190Z,35.32
2023-04-18T09:09:46.080Z,35.20
2023-04-18T09:12:19.754Z,35.37
2023-04-18T09:14:50.455Z,35.62
2023-04-18T09:17:38.661Z,35.29
2023-04-18T09:20:10.669Z,35.29
2023-04-18T09:22:52.140Z,35.32
2023-04-18T09:25:44.577Z,35.38
2023-04-18T09:28:23.434Z,35.59
2023-04-18T09:30:52.757Z,35.65
2023-04-18T09:33:33.415Z,33.79
2023-04-18T09:36:17.834Z,31.03
2023-04-18T09:38:46.178Z,31.73
2023-04-18T09:41:16.595Z,32.92
2023-04-18T09:43:46.264Z,32.90
2023-04-18T09:46:14.453Z,32.67
2023-04-18T09:48:42.771Z,32.88
2023-04-18T09:51:11.791Z,32.92
2023-04-18T09:53:48.013Z,32.71
2023-04-18T09:56:27.696Z,32.96
2023-04-18T09:59:29.626Z,32.36
2023-04-18T10:01:57.750Z,32.23
2023-04-18T10:04:26.022Z,31.47
2023-04-18T10:06:54.207Z,31.30
2023-04-18T10:09:22.175Z,31.03
2023-04-18T10:11:50.265Z,31.02
2023-04-18T10:14:18.381Z,31.31
2023-04-18T10:16:49.297Z,30.85
2023-04-18T10:19:26.324Z,30.40
2023-04-18T10:22:00.500Z,30.29
2023-04-18T10:24:50.260Z,29.76
2023-04-18T10:27:18.458Z,29.89
2023-04-18T10:32:24.655Z,30.25
2023-04-18T10:34:56.284Z,29.16
2023-04-18T10:40:06.771Z,29.46
2023-04-18T10:43:01.140Z,29.54
2023-04-18T10:45:32.625Z,29.69
2023-04-18T10:48:27.886Z,29.31
2023-04-18T10:51:15.880Z,29.12
2023-04-18T10:54:01.996Z,29.11
2023-04-18T10:56:30.121Z,29.45
2023-04-18T10:59:00.001Z,29.57
2023-04-18T11:01:32.381Z,29.74
2023-04-18T11:04:01.491Z,29.69
2023-04-18T11:06:31.451Z,29.50
2023-04-18T11:09:12.436Z,29.25
2023-04-18T11:11:41.640Z,29.09
2023-04-18T11:14:09.871Z,28.72
2023-04-18T11:16:38.172Z,28.88
2023-04-18T11:19:20.296Z,28.74
2023-04-18T11:21:48.251Z,28.26
2023-04-18T11:24:23.749Z,28.23
2023-04-18T11:26:55.901Z,29.42
2023-04-18T11:29:24.290Z,30.19
2023-04-18T11:31:55.820Z,29.68
2023-04-18T11:34:32.161Z,29.06
2023-04-18T11:37:00.402Z,28.36
2023-04-18T11:39:28.467Z,28.41
2023-04-18T11:41:57.448Z,28.33
2023-04-18T11:44:26.246Z,28.88
2023-04-18T11:46:54.284Z,28.95
2023-04-18T11:49:29.005Z,28.83
2023-04-18T11:51:57.127Z,28.81
2023-04-18T11:54:41.626Z,28.33
2023-04-18T11:57:19.444Z,29.06
2023-04-18T11:59:54.081Z,31.43
2023-04-18T12:02:22.754Z,31.48
2023-04-18T12:04:53.459Z,32.10
2023-04-18T12:07:35.115Z,31.63
2023-04-18T12:10:04.907Z,31.13
2023-04-18T12:12:32.982Z,30.91
2023-04-18T12:15:14.561Z,30.77
2023-04-18T12:17:46.797Z,30.71
2023-04-18T12:20:16.133Z,30.88
2023-04-18T12:22:47.581Z,30.77
2023-04-18T12:25:24.941Z,31.20
2023-04-18T12:28:00.675Z,31.21
2023-04-18T12:30:34.101Z,31.06
2023-04-18T12:33:04.452Z,30.71
2023-04-18T12:35:32.859Z,31.02
2023-04-18T12:38:01.725Z,27.03
2023-04-18T12:40:30.011Z,24.58
2023-04-18T12:42:58.488Z,23.70
2023-04-18T12:45:26.630Z,23.62
2023-04-18T12:47:54.754Z,23.48
2023-04-18T12:50:24.929Z,23.49
2023-04-18T12:52:54.083Z,23.79
2023-04-18T12:55:23.047Z,23.73
2023-04-18T12:57:52.437Z,23.62
2023-04-18T13:00:21.437Z,23.93
2023-04-18T13:02:49.820Z,26.68
2023-04-18T13:05:19.180Z,28.23
2023-04-18T13:07:49.500Z,25.47
2023-04-18T13:10:18.792Z,25.17
2023-04-18T13:12:47.018Z,25.04
2023-04-18T13:15:16.316Z,24.50
2023-04-18T13:17:44.619Z,23.87
2023-04-18T13:20:13.143Z,23.84
2023-04-18T13:22:41.772Z,23.72
2023-04-18T13:25:10.891Z,23.56
2023-04-18T13:27:41.811Z,23.98
2023-04-18T13:30:10.979Z,23.76
2023-04-18T13:32:40.524Z,24.26
2023-04-18T13:35:10.922Z,24.72
2023-04-18T13:37:39.418Z,24.49
2023-04-18T13:40:08.379Z,25.73
2023-04-18T13:42:37.292Z,26.50
2023-04-18T13:45:06.248Z,24.61
2023-04-18T13:47:34.844Z,24.42
2023-04-18T13:50:03.201Z,23.91
2023-04-18T13:52:31.534Z,23.81
2023-04-18T13:54:59.604Z,23.37
2023-04-18T13:57:28.588Z,23.88
2023-04-18T13:59:57.179Z,23.48
2023-04-18T14:02:25.326Z,23.34
2023-04-18T14:04:55.010Z,23.64
2023-04-18T14:07:23.229Z,23.78
2023-04-18T14:09:53.340Z,23.90
2023-04-18T14:12:22.594Z,24.22
2023-04-18T14:14:50.901Z,26.07
2023-04-18T14:17:18.927Z,27.87
2023-04-18T14:19:46.898Z,28.45
2023-04-18T14:22:14.835Z,29.17
2023-04-18T14:24:42.778Z,29.14
2023-04-18T14:27:10.756Z,29.46
2023-04-18T14:29:38.844Z,30.07
2023-04-18T14:32:07.460Z,29.93
2023-04-18T14:34:36.765Z,29.57
2023-04-18T14:37:06.473Z,29.93
2023-04-18T14:39:34.735Z,30.06
2023-04-18T14:42:02.705Z,30.15
2023-04-18T14:44:31.584Z,30.49
2023-04-18T14:46:59.721Z,30.15
2023-04-18T14:49:28.135Z,30.25
2023-04-18T14:51:56.197Z,30.74
2023-04-18T14:54:24.381Z,31.41
2023-04-18T14:56:52.661Z,32.46
2023-04-18T14:59:20.843Z,31.76
2023-04-18T15:01:49.192Z,31.57
2023-04-18T15:04:18.056Z,31.31
2023-04-18T15:06:46.786Z,31.43
2023-04-18T15:09:16.197Z,32.24
2023-04-18T15:11:44.271Z,32.59
2023-04-18T15:14:12.685Z,32.84
2023-04-18T15:16:41.265Z,33.49
2023-04-18T15:19:09.294Z,33.36
2023-04-18T15:21:37.468Z,33.81
2023-04-18T15:24:06.255Z,33.72
2023-04-18T15:26:34.332Z,33.76
2023-04-18T15:29:03.956Z,33.31
2023-04-18T15:31:32.673Z,33.36
2023-04-18T15:34:01.750Z,33.40
2023-04-18T15:36:30.007Z,33.34
2023-04-18T15:38:58.182Z,33.57
2023-04-18T15:41:26.355Z,33.47
2023-04-18T15:43:54.423Z,33.54
2023-04-18T15:46:22.652Z,33.39
2023-04-18T15:48:51.183Z,33.00
2023-04-18T15:51:19.560Z,32.96
2023-04-18T15:53:47.831Z,32.90
2023-04-18T15:56:16.046Z,32.73
2023-04-18T15:58:44.073Z,32.88
2023-04-18T16:01:16.111Z,32.78
2023-04-18T16:03:44.523Z,32.86
2023-04-18T16:06:14.268Z,32.86
2023-04-18T16:08:42.415Z,32.87
2023-04-18T16:11:10.410Z,33.08
2023-04-18T16:13:38.654Z,33.19
2023-04-18T16:16:07.231Z,34.08
2023-04-18T16:18:35.667Z,34.46
2023-04-18T16:21:04.101Z,34.61
2023-04-18T16:23:32.807Z,34.81
2023-04-18T16:26:00.788Z,35.53
2023-04-18T16:28:30.152Z,35.76
2023-04-18T16:30:58.275Z,32.40
2023-04-18T16:33:26.754Z,29.35
2023-04-18T16:35:57.969Z,28.57
2023-04-18T16:38:27.516Z,27.82
2023-04-18T16:40:59.117Z,27.28
2023-04-18T16:43:31.194Z,27.37
2023-04-18T16:46:00.418Z,28.61
2023-04-18T16:48:31.323Z,29.31
2023-04-18T16:50:59.467Z,29.91
2023-04-18T16:53:27.560Z,30.21
2023-04-18T16:55:55.949Z,30.47
2023-04-18T16:58:23.954Z,30.86
2023-04-18T17:00:52.831Z,30.87
2023-04-18T17:03:21.275Z,31.32
2023-04-18T17:05:49.468Z,31.62
2023-04-18T17:08:17.844Z,31.52
2023-04-18T17:10:46.032Z,31.86
2023-04-18T17:13:14.096Z,32.01
2023-04-18T17:15:43.194Z,32.15
2023-04-18T17:18:11.500Z,32.12
2023-04-18T17:20:39.736Z,32.64
2023-04-18T17:23:07.753Z,32.95
2023-04-18T17:25:36.803Z,33.20
2023-04-18T17:28:05.424Z,33.50
2023-04-18T17:30:33.571Z,33.77
2023-04-18T17:33:01.590Z,33.96
2023-04-18T17:35:29.597Z,33.97
2023-04-18T17:37:58.079Z,34.15
2023-04-18T17:40:26.386Z,34.34
2023-04-18T17:42:54.634Z,34.51
2023-04-18T17:45:22.801Z,34.71
2023-04-18T17:47:51.055Z,34.52
2023-04-18T17:50:19.250Z,34.81
2023-04-18T17:52:47.390Z,34.91
2023-04-18T17:55:15.771Z,34.72
2023-04-18T17:57:43.831Z,34.76
2023-04-18T18:00:14.747Z,34.93
2023-04-18T18:02:43.058Z,34.98
2023-04-18T18:05:13.218Z,34.64
2023-04-18T18:07:44.130Z,34.31
2023-04-18T18:10:14.840Z,34.64
2023-04-18T18:12:44.092Z,34.85
2023-04-18T18:15:12.238Z,35.55
2023-04-18T18:17:40.344Z,35.24
2023-04-18T18:20:13.941Z,34.78
2023-04-18T18:22:42.582Z,34.77
2023-04-18T18:25:10.759Z,34.68
2023-04-18T18:27:38.885Z,35.20
2023-04-18T18:30:07.389Z,35.11
2023-04-18T18:32:35.714Z,35.00
2023-04-18T18:35:05.903Z,34.92
2023-04-18T18:37:33.893Z,34.95
2023-04-18T18:40:04.875Z,34.89
2023-04-18T18:42:32.958Z,34.78
2023-04-18T18:45:01.674Z,34.61
2023-04-18T18:47:30.660Z,34.47
2023-04-18T18:49:58.892Z,34.38
2023-04-18T18:52:29.765Z,34.57
2023-04-18T18:54:57.875Z,34.36
2023-04-18T18:57:26.233Z,34.37
2023-04-18T18:59:55.833Z,34.14
2023-04-18T19:02:24.837Z,33.95
2023-04-18T19:04:53.316Z,34.15
2023-04-18T19:07:21.420Z,34.03
2023-04-18T19:09:49.528Z,33.97
2023-04-18T19:12:17.894Z,33.72
2023-04-18T19:14:46.914Z,33.74
2023-04-18T19:17:17.682Z,33.69
2023-04-18T19:19:45.849Z,33.55
2023-04-18T19:22:13.815Z,33.41
2023-04-18T19:24:41.834Z,33.64
2023-04-18T19:27:09.775Z,33.56
2023-04-18T19:29:37.664Z,33.51
2023-04-18T19:32:06.472Z,33.42
2023-04-18T19:34:34.472Z,33.31
2023-04-18T19:37:02.495Z,33.32
2023-04-18T19:39:30.551Z,33.15
2023-04-18T19:41:58.480Z,33.19
2023-04-18T19:44:26.503Z,33.06
2023-04-18T19:46:54.562Z,33.21
2023-04-18T19:49:22.653Z,33.05
2023-04-18T19:51:52.525Z,32.95
2023-04-18T19:54:21.968Z,32.99
2023-04-18T19:56:50.198Z,33.07
2023-04-18T19:59:20.481Z,32.87
2023-04-18T20:01:48.517Z,32.82
2023-04-18T20:04:16.745Z,33.26
2023-04-18T20:06:45.073Z,32.83
2023-04-18T20:09:17.284Z,33.17
2023-04-18T20:11:46.575Z,33.28
2023-04-18T20:14:14.502Z,33.13
2023-04-18T20:16:46.157Z,33.15
2023-04-18T20:19:16.589Z,33.27
2023-04-18T20:21:44.735Z,33.45
2023-04-18T20:24:13.708Z,33.40
2023-04-18T20:26:41.930Z,33.41
2023-04-18T20:29:09.974Z,33.51
2023-04-18T20:31:42.258Z,33.53
2023-04-18T20:34:10.256Z,33.53
2023-04-18T20:36:41.614Z,33.36
2023-04-18T20:39:09.696Z,33.40
2023-04-18T20:41:37.717Z,33.63
2023-04-18T20:44:06.820Z,33.22
2023-04-18T20:46:34.902Z,33.29
2023-04-18T20:49:02.926Z,33.32
2023-04-18T20:51:31.812Z,33.15
2023-04-18T20:53:59.816Z,33.12
2023-04-18T20:56:27.853Z,33.20
2023-04-18T20:58:55.839Z,33.35
2023-04-18T21:01:23.903Z,33.34
2023-04-18T21:03:52.272Z,33.57
2023-04-18T21:06:22.188Z,33.55
2023-04-18T21:08:50.794Z,33.50
2023-04-18T21:11:18.798Z,33.27
2023-04-18T21:13:46.721Z,33.34
2023-04-18T21:16:14.774Z,33.32
2023-04-18T21:18:42.939Z,33.29
2023-04-18T21:21:11.739Z,33.32
2023-04-18T21:23:43.814Z,33.42
2023-04-18T21:26:13.148Z,33.81
2023-04-18T21:28:56.584Z,33.69
2023-04-18T21:31:25.299Z,33.85
2023-04-18T21:33:57.398Z,34.12
2023-04-18T21:36:27.113Z,33.98
2023-04-18T21:38:56.106Z,34.06
2023-04-18T21:41:24.381Z,34.01
2023-04-18T21:43:52.554Z,33.89
2023-04-18T21:46:20.764Z,33.79
2023-04-18T21:48:48.854Z,34.03
2023-04-18T21:51:16.917Z,33.92
2023-04-18T21:53:45.025Z,33.87
2023-04-18T21:56:12.992Z,33.72
2023-04-18T21:58:41.048Z,33.87
2023-04-18T22:01:09.113Z,33.72
2023-04-18T22:03:37.322Z,33.63
2023-04-18T22:06:05.901Z,33.80
2023-04-18T22:08:33.975Z,33.53
2023-04-18T22:11:01.967Z,33.54
2023-04-18T22:13:32.929Z,33.49
2023-04-18T22:16:04.233Z,33.72
2023-04-18T22:18:33.677Z,33.46
2023-04-18T22:21:03.424Z,33.56
2023-04-18T22:23:31.552Z,33.57
2023-04-18T22:25:59.666Z,33.58
2023-04-18T22:28:30.919Z,33.48
2023-04-18T22:30:58.933Z,33.44
2023-04-18T22:33:27.089Z,33.56
2023-04-18T22:35:55.750Z,33.48
2023-04-18T22:38:25.167Z,33.44
2023-04-18T22:40:53.239Z,33.44
2023-04-18T22:43:23.669Z,33.26
2023-04-18T22:45:51.777Z,33.44
2023-04-18T22:48:20.345Z,33.39
2023-04-18T22:50:49.951Z,33.27
2023-04-18T22:53:18.173Z,33.17
2023-04-18T22:55:46.626Z,33.09
2023-04-18T22:58:14.911Z,33.17
2023-04-18T23:00:42.976Z,33.20
2023-04-18T23:03:11.271Z,33.30
2023-04-18T23:05:39.962Z,33.11
2023-04-18T23:08:08.182Z,33.22
2023-04-18T23:10:36.261Z,33.18
2023-04-18T23:13:04.384Z,33.26
2023-04-18T23:15:32.429Z,33.22
2023-04-18T23:18:00.695Z,33.22
2023-04-18T23:20:28.765Z,33.25
2023-04-18T23:22:56.758Z,33.17
2023-04-18T23:25:24.761Z,33.19
2023-04-18T23:27:52.731Z,33.36
2023-04-18T23:30:20.670Z,33.45
2023-04-18T23:32:48.773Z,33.15
2023-04-18T23:35:16.920Z,33.14
2023-04-18T23:37:44.998Z,33.16
2023-04-18T23:40:13.543Z,33.34
2023-04-18T23:42:42.198Z,33.32
2023-04-18T23:45:10.882Z,33.38
2023-04-18T23:47:38.868Z,33.21
2023-04-18T23:50:07.758Z,33.20
2023-04-18T23:52:35.859Z,33.18
2023-04-18T23:55:04.094Z,33.22
2023-04-18T23:57:32.217Z,33.07
